This is the latest recevied weather packets stored in our database for station/object N4RCT. If no packets are shown the sender has not sent any weather packets the latest 10 day(s).
| Time | Temp. | Humidity | Pressure | Rain* | Wind** | Luminosity | Snow |
|---|---|---|---|---|---|---|---|
| 1777809243 | 7.22° C | 97% | 1019.9 hPa | 0 mm | - | 46 W/m² | - |
| 1777808940 | 6.11° C | 97% | 1019.7 hPa | 0 mm | - | 39 W/m² | - |
| 1777808636 | 5° C | 97% | 1019.8 hPa | 0 mm | - | 34 W/m² | - |
| 1777808333 | 4.44° C | 97% | 1019.8 hPa | 0 mm | - | 23 W/m² | - |
| 1777808032 | 4.44° C | 97% | 1020 hPa | 0 mm | - | 20 W/m² | - |
| 1777807729 | 4.44° C | 97% | 1019.8 hPa | 0 mm | - | 18 W/m² | - |
| 1777807427 | 4.44° C | 97% | 1019.8 hPa | 0 mm | - | 16 W/m² | - |
| 1777807122 | 4.44° C | 97% | 1019.7 hPa | 0 mm | - | 12 W/m² | - |
| 1777806820 | 4.44° C | 97% | 1019.6 hPa | 0 mm | - | 11 W/m² | - |
| 1777806516 | 4.44° C | 97% | 1019.5 hPa | 0 mm | - | 8 W/m² | - |
| 1777806212 | 3.89° C | 97% | 1019.5 hPa | 0 mm | - | 6 W/m² | - |
| 1777805909 | 3.89° C | 97% | 1019.4 hPa | 0 mm | - | 4 W/m² | - |
| 1777805606 | 3.89° C | 97% | 1019.3 hPa | 0 mm | - | 2 W/m² | - |
| 1777805304 | 4.44° C | 97% | 1019.3 hPa | 0 mm | - | 0 W/m² | - |
| 1777805001 | 3.89° C | 96% | 1019.2 hPa | 0 mm | - | 0 W/m² | - |
| 1777804698 | 4.44° C | 96% | 1018.9 hPa | 0 mm | - | 0 W/m² | - |
| 1777804396 | 4.44° C | 96% | 1019 hPa | 0 mm | - | 0 W/m² | - |
| 1777804093 | 4.44° C | 96% | 1019.2 hPa | 0 mm | - | 0 W/m² | - |
| 1777803790 | 4.44° C | 96% | 1019 hPa | 0 mm | - | 0 W/m² | - |
| 1777803485 | 4.44° C | 96% | 1018.9 hPa | 0 mm | - | 0 W/m² | - |
| 1777803183 | 4.44° C | 96% | 1018.8 hPa | 0 mm | - | 0 W/m² | - |
| 1777802880 | 4.44° C | 96% | 1019.1 hPa | 0 mm | - | 0 W/m² | - |
| 1777802578 | 4.44° C | 96% | 1018.8 hPa | 0 mm | - | 0 W/m² | - |
| 1777802275 | 4.44° C | 95% | 1018.8 hPa | 0 mm | - | 0 W/m² | - |
| 1777801974 | 4.44° C | 95% | 1018.8 hPa | 0 mm | - | 0 W/m² | - |
* Rain latest hour (hover to see other rain measurements)
** Current wind speed in m/s (hover to see current wind gust speed)